sensor_id;sensor_type;location;lat;lon;timestamp;P1;durP1;ratioP1;P2;durP2;ratioP2
17917;SDS011;9084;50.956;3.106;2022-12-08T00:02:15;8.80;;;7.87;;
17917;SDS011;9084;50.956;3.106;2022-12-08T00:04:44;8.03;;;6.47;;
17917;SDS011;9084;50.956;3.106;2022-12-08T00:07:28;8.67;;;6.07;;
17917;SDS011;9084;50.956;3.106;2022-12-08T00:10:12;8.93;;;6.03;;
17917;SDS011;9084;50.956;3.106;2022-12-08T00:12:41;13.07;;;8.43;;
17917;SDS011;9084;50.956;3.106;2022-12-08T00:15:09;9.83;;;7.87;;
17917;SDS011;9084;50.956;3.106;2022-12-08T00:17:34;7.90;;;7.03;;
17917;SDS011;9084;50.956;3.106;2022-12-08T00:20:03;9.17;;;8.27;;
17917;SDS011;9084;50.956;3.106;2022-12-08T00:22:29;9.97;;;6.93;;
17917;SDS011;9084;50.956;3.106;2022-12-08T00:24:56;8.73;;;7.50;;
17917;SDS011;9084;50.956;3.106;2022-12-08T00:27:22;10.70;;;7.83;;
17917;SDS011;9084;50.956;3.106;2022-12-08T00:29:48;8.77;;;7.97;;
17917;SDS011;9084;50.956;3.106;2022-12-08T00:32:14;10.10;;;7.30;;
17917;SDS011;9084;50.956;3.106;2022-12-08T00:34:43;7.40;;;6.70;;
17917;SDS011;9084;50.956;3.106;2022-12-08T00:37:09;9.97;;;6.17;;
17917;SDS011;9084;50.956;3.106;2022-12-08T00:39:35;7.83;;;6.70;;
17917;SDS011;9084;50.956;3.106;2022-12-08T00:42:01;11.80;;;6.87;;
17917;SDS011;9084;50.956;3.106;2022-12-08T00:44:36;7.97;;;6.47;;
17917;SDS011;9084;50.956;3.106;2022-12-08T00:47:02;8.80;;;6.10;;
17917;SDS011;9084;50.956;3.106;2022-12-08T00:49:31;7.63;;;6.70;;
17917;SDS011;9084;50.956;3.106;2022-12-08T00:51:59;7.43;;;6.57;;
17917;SDS011;9084;50.956;3.106;2022-12-08T00:54:26;9.10;;;6.07;;
17917;SDS011;9084;50.956;3.106;2022-12-08T00:56:55;6.73;;;6.03;;
17917;SDS011;9084;50.956;3.106;2022-12-08T00:59:21;10.10;;;5.70;;
17917;SDS011;9084;50.956;3.106;2022-12-08T01:01:49;9.93;;;6.67;;
17917;SDS011;9084;50.956;3.106;2022-12-08T01:04:16;9.50;;;6.07;;
17917;SDS011;9084;50.956;3.106;2022-12-08T01:06:45;7.23;;;5.83;;
17917;SDS011;9084;50.956;3.106;2022-12-08T01:09:12;6.80;;;5.70;;
17917;SDS011;9084;50.956;3.106;2022-12-08T01:11:39;9.70;;;6.20;;
17917;SDS011;9084;50.956;3.106;2022-12-08T01:14:06;6.27;;;5.30;;
17917;SDS011;9084;50.956;3.106;2022-12-08T01:16:33;8.70;;;4.77;;
17917;SDS011;9084;50.956;3.106;2022-12-08T01:19:00;8.93;;;5.43;;
17917;SDS011;9084;50.956;3.106;2022-12-08T01:21:30;6.87;;;4.97;;
17917;SDS011;9084;50.956;3.106;2022-12-08T01:23:58;6.83;;;5.67;;
17917;SDS011;9084;50.956;3.106;2022-12-08T01:26:25;6.77;;;5.57;;
17917;SDS011;9084;50.956;3.106;2022-12-08T01:28:51;8.40;;;5.23;;
17917;SDS011;9084;50.956;3.106;2022-12-08T01:31:18;6.33;;;5.27;;
17917;SDS011;9084;50.956;3.106;2022-12-08T01:33:45;6.77;;;5.03;;
17917;SDS011;9084;50.956;3.106;2022-12-08T01:36:21;6.30;;;4.80;;
17917;SDS011;9084;50.956;3.106;2022-12-08T01:38:47;8.83;;;6.23;;
17917;SDS011;9084;50.956;3.106;2022-12-08T01:41:17;6.53;;;5.40;;
17917;SDS011;9084;50.956;3.106;2022-12-08T01:43:56;11.87;;;7.00;;
17917;SDS011;9084;50.956;3.106;2022-12-08T01:46:28;8.23;;;5.60;;
17917;SDS011;9084;50.956;3.106;2022-12-08T01:48:57;10.17;;;6.20;;
17917;SDS011;9084;50.956;3.106;2022-12-08T01:51:57;10.10;;;6.40;;
17917;SDS011;9084;50.956;3.106;2022-12-08T01:54:29;8.23;;;5.47;;
17917;SDS011;9084;50.956;3.106;2022-12-08T01:57:02;7.53;;;5.30;;
17917;SDS011;9084;50.956;3.106;2022-12-08T01:59:38;8.30;;;6.50;;
17917;SDS011;9084;50.956;3.106;2022-12-08T02:02:09;6.50;;;5.47;;
17917;SDS011;9084;50.956;3.106;2022-12-08T02:04:39;8.73;;;5.70;;
17917;SDS011;9084;50.956;3.106;2022-12-08T02:07:05;7.67;;;6.20;;
17917;SDS011;9084;50.956;3.106;2022-12-08T02:09:34;9.37;;;6.37;;
17917;SDS011;9084;50.956;3.106;2022-12-08T02:12:04;11.00;;;7.00;;
17917;SDS011;9084;50.956;3.106;2022-12-08T02:14:31;6.73;;;6.00;;
17917;SDS011;9084;50.956;3.106;2022-12-08T02:17:15;8.63;;;6.17;;
17917;SDS011;9084;50.956;3.106;2022-12-08T02:22:22;7.40;;;6.70;;
17917;SDS011;9084;50.956;3.106;2022-12-08T02:27:45;10.47;;;6.73;;
17917;SDS011;9084;50.956;3.106;2022-12-08T02:30:44;9.07;;;7.43;;
17917;SDS011;9084;50.956;3.106;2022-12-08T02:33:39;8.20;;;7.10;;
17917;SDS011;9084;50.956;3.106;2022-12-08T02:38:48;10.90;;;7.23;;
17917;SDS011;9084;50.956;3.106;2022-12-08T02:41:22;9.60;;;7.97;;
17917;SDS011;9084;50.956;3.106;2022-12-08T02:44:04;11.33;;;7.87;;
17917;SDS011;9084;50.956;3.106;2022-12-08T02:46:37;10.67;;;8.70;;
17917;SDS011;9084;50.956;3.106;2022-12-08T02:49:07;10.87;;;7.40;;
17917;SDS011;9084;50.956;3.106;2022-12-08T02:51:33;12.03;;;8.37;;
17917;SDS011;9084;50.956;3.106;2022-12-08T02:53:59;11.03;;;8.17;;
17917;SDS011;9084;50.956;3.106;2022-12-08T02:59:03;11.80;;;9.07;;
17917;SDS011;9084;50.956;3.106;2022-12-08T03:01:48;9.30;;;7.90;;
17917;SDS011;9084;50.956;3.106;2022-12-08T03:07:52;12.07;;;8.77;;
17917;SDS011;9084;50.956;3.106;2022-12-08T03:10:33;13.03;;;8.50;;
17917;SDS011;9084;50.956;3.106;2022-12-08T03:16:00;10.17;;;8.13;;
17917;SDS011;9084;50.956;3.106;2022-12-08T03:18:30;11.60;;;7.87;;
17917;SDS011;9084;50.956;3.106;2022-12-08T03:20:57;10.67;;;7.97;;
17917;SDS011;9084;50.956;3.106;2022-12-08T03:23:24;10.73;;;6.87;;
17917;SDS011;9084;50.956;3.106;2022-12-08T03:25:58;12.10;;;6.80;;
17917;SDS011;9084;50.956;3.106;2022-12-08T03:28:30;12.57;;;7.03;;
17917;SDS011;9084;50.956;3.106;2022-12-08T03:30:56;8.90;;;6.50;;
17917;SDS011;9084;50.956;3.106;2022-12-08T03:33:32;8.97;;;6.57;;
17917;SDS011;9084;50.956;3.106;2022-12-08T03:36:04;5.37;;;4.80;;
17917;SDS011;9084;50.956;3.106;2022-12-08T03:38:37;8.40;;;5.27;;
17917;SDS011;9084;50.956;3.106;2022-12-08T03:41:10;5.67;;;5.13;;
17917;SDS011;9084;50.956;3.106;2022-12-08T03:43:44;7.07;;;4.40;;
17917;SDS011;9084;50.956;3.106;2022-12-08T03:46:11;5.43;;;3.60;;
17917;SDS011;9084;50.956;3.106;2022-12-08T03:48:37;7.40;;;3.03;;
17917;SDS011;9084;50.956;3.106;2022-12-08T03:51:03;5.43;;;3.60;;
17917;SDS011;9084;50.956;3.106;2022-12-08T03:53:29;3.87;;;3.50;;
17917;SDS011;9084;50.956;3.106;2022-12-08T03:55:55;6.90;;;5.10;;
17917;SDS011;9084;50.956;3.106;2022-12-08T03:58:20;6.17;;;4.87;;
17917;SDS011;9084;50.956;3.106;2022-12-08T04:00:46;6.70;;;4.83;;
17917;SDS011;9084;50.956;3.106;2022-12-08T04:03:12;7.67;;;4.83;;
17917;SDS011;9084;50.956;3.106;2022-12-08T04:05:40;9.37;;;5.40;;
17917;SDS011;9084;50.956;3.106;2022-12-08T04:08:06;6.20;;;4.97;;
17917;SDS011;9084;50.956;3.106;2022-12-08T04:10:32;8.63;;;4.77;;
17917;SDS011;9084;50.956;3.106;2022-12-08T04:13:00;5.63;;;4.43;;
17917;SDS011;9084;50.956;3.106;2022-12-08T04:15:27;6.87;;;4.63;;
17917;SDS011;9084;50.956;3.106;2022-12-08T04:17:52;6.53;;;4.73;;
17917;SDS011;9084;50.956;3.106;2022-12-08T04:20:18;8.10;;;4.67;;
17917;SDS011;9084;50.956;3.106;2022-12-08T04:22:48;6.27;;;4.77;;
17917;SDS011;9084;50.956;3.106;2022-12-08T04:25:13;8.27;;;5.17;;
17917;SDS011;9084;50.956;3.106;2022-12-08T04:27:44;6.40;;;4.80;;
17917;SDS011;9084;50.956;3.106;2022-12-08T04:30:10;9.23;;;5.20;;
17917;SDS011;9084;50.956;3.106;2022-12-08T04:32:36;6.87;;;5.30;;
17917;SDS011;9084;50.956;3.106;2022-12-08T04:35:02;5.30;;;4.80;;
17917;SDS011;9084;50.956;3.106;2022-12-08T04:37:29;5.10;;;4.60;;
17917;SDS011;9084;50.956;3.106;2022-12-08T04:39:54;5.53;;;5.00;;
17917;SDS011;9084;50.956;3.106;2022-12-08T04:42:23;6.70;;;4.67;;
17917;SDS011;9084;50.956;3.106;2022-12-08T04:44:49;6.60;;;5.10;;
17917;SDS011;9084;50.956;3.106;2022-12-08T04:47:15;10.63;;;5.53;;
17917;SDS011;9084;50.956;3.106;2022-12-08T04:49:44;8.77;;;5.20;;
17917;SDS011;9084;50.956;3.106;2022-12-08T04:52:10;7.50;;;5.77;;
17917;SDS011;9084;50.956;3.106;2022-12-08T04:54:38;8.80;;;5.77;;
17917;SDS011;9084;50.956;3.106;2022-12-08T04:57:07;9.97;;;5.73;;
17917;SDS011;9084;50.956;3.106;2022-12-08T04:59:35;8.87;;;5.63;;
17917;SDS011;9084;50.956;3.106;2022-12-08T05:02:01;8.50;;;6.40;;
17917;SDS011;9084;50.956;3.106;2022-12-08T05:04:26;9.47;;;6.23;;
17917;SDS011;9084;50.956;3.106;2022-12-08T05:06:55;6.50;;;5.67;;
17917;SDS011;9084;50.956;3.106;2022-12-08T05:09:21;9.60;;;6.07;;
17917;SDS011;9084;50.956;3.106;2022-12-08T05:11:47;13.23;;;6.33;;
17917;SDS011;9084;50.956;3.106;2022-12-08T05:14:16;7.23;;;6.03;;
17917;SDS011;9084;50.956;3.106;2022-12-08T05:16:43;9.77;;;5.83;;
17917;SDS011;9084;50.956;3.106;2022-12-08T05:19:09;8.63;;;6.83;;
17917;SDS011;9084;50.956;3.106;2022-12-08T05:21:35;7.80;;;6.97;;
17917;SDS011;9084;50.956;3.106;2022-12-08T05:24:02;8.50;;;5.47;;
17917;SDS011;9084;50.956;3.106;2022-12-08T05:26:28;10.13;;;7.37;;
17917;SDS011;9084;50.956;3.106;2022-12-08T05:28:54;7.33;;;6.20;;
17917;SDS011;9084;50.956;3.106;2022-12-08T05:31:20;7.77;;;5.87;;
17917;SDS011;9084;50.956;3.106;2022-12-08T05:33:49;9.40;;;6.77;;
17917;SDS011;9084;50.956;3.106;2022-12-08T05:36:18;17.20;;;6.37;;
17917;SDS011;9084;50.956;3.106;2022-12-08T05:38:45;6.50;;;5.50;;
17917;SDS011;9084;50.956;3.106;2022-12-08T05:41:15;8.40;;;6.50;;
17917;SDS011;9084;50.956;3.106;2022-12-08T05:43:43;6.80;;;5.87;;
17917;SDS011;9084;50.956;3.106;2022-12-08T05:46:09;9.20;;;6.47;;
17917;SDS011;9084;50.956;3.106;2022-12-08T05:48:35;8.77;;;6.30;;
17917;SDS011;9084;50.956;3.106;2022-12-08T05:51:02;10.57;;;6.40;;
17917;SDS011;9084;50.956;3.106;2022-12-08T05:53:30;8.83;;;5.80;;
17917;SDS011;9084;50.956;3.106;2022-12-08T05:55:56;8.00;;;6.23;;
17917;SDS011;9084;50.956;3.106;2022-12-08T05:58:23;9.40;;;6.07;;
17917;SDS011;9084;50.956;3.106;2022-12-08T06:00:53;9.00;;;5.83;;
17917;SDS011;9084;50.956;3.106;2022-12-08T06:03:18;7.67;;;5.30;;
17917;SDS011;9084;50.956;3.106;2022-12-08T06:05:45;6.60;;;5.70;;
17917;SDS011;9084;50.956;3.106;2022-12-08T06:08:14;9.03;;;6.00;;
17917;SDS011;9084;50.956;3.106;2022-12-08T06:10:41;6.63;;;5.87;;
17917;SDS011;9084;50.956;3.106;2022-12-08T06:13:09;7.90;;;5.27;;
17917;SDS011;9084;50.956;3.106;2022-12-08T06:15:35;10.80;;;5.90;;
17917;SDS011;9084;50.956;3.106;2022-12-08T06:18:02;9.27;;;5.37;;
17917;SDS011;9084;50.956;3.106;2022-12-08T06:20:28;7.97;;;6.17;;
17917;SDS011;9084;50.956;3.106;2022-12-08T06:22:55;7.30;;;6.07;;
17917;SDS011;9084;50.956;3.106;2022-12-08T06:25:24;11.67;;;5.67;;
17917;SDS011;9084;50.956;3.106;2022-12-08T06:27:49;6.63;;;4.53;;
17917;SDS011;9084;50.956;3.106;2022-12-08T06:30:18;7.13;;;5.13;;
17917;SDS011;9084;50.956;3.106;2022-12-08T06:32:46;6.30;;;5.07;;
17917;SDS011;9084;50.956;3.106;2022-12-08T06:35:12;10.83;;;5.27;;
17917;SDS011;9084;50.956;3.106;2022-12-08T06:37:39;8.40;;;5.00;;
17917;SDS011;9084;50.956;3.106;2022-12-08T06:40:05;5.80;;;5.03;;
17917;SDS011;9084;50.956;3.106;2022-12-08T06:42:31;5.13;;;4.40;;
17917;SDS011;9084;50.956;3.106;2022-12-08T06:45:13;7.27;;;4.90;;
17917;SDS011;9084;50.956;3.106;2022-12-08T06:47:43;8.70;;;5.10;;
17917;SDS011;9084;50.956;3.106;2022-12-08T06:50:10;5.63;;;4.77;;
17917;SDS011;9084;50.956;3.106;2022-12-08T06:52:38;8.40;;;5.10;;
17917;SDS011;9084;50.956;3.106;2022-12-08T06:55:10;6.30;;;4.90;;
17917;SDS011;9084;50.956;3.106;2022-12-08T06:57:36;6.17;;;4.90;;
17917;SDS011;9084;50.956;3.106;2022-12-08T07:00:05;7.73;;;4.73;;
17917;SDS011;9084;50.956;3.106;2022-12-08T07:02:34;6.60;;;4.63;;
17917;SDS011;9084;50.956;3.106;2022-12-08T07:04:59;8.20;;;4.73;;
17917;SDS011;9084;50.956;3.106;2022-12-08T07:07:28;6.77;;;4.37;;
17917;SDS011;9084;50.956;3.106;2022-12-08T07:09:57;9.30;;;4.70;;
17917;SDS011;9084;50.956;3.106;2022-12-08T07:12:23;4.70;;;3.87;;
17917;SDS011;9084;50.956;3.106;2022-12-08T07:14:50;4.80;;;3.13;;
17917;SDS011;9084;50.956;3.106;2022-12-08T07:17:17;7.60;;;3.97;;
17917;SDS011;9084;50.956;3.106;2022-12-08T07:19:42;5.47;;;3.57;;
17917;SDS011;9084;50.956;3.106;2022-12-08T07:22:08;6.80;;;3.67;;
17917;SDS011;9084;50.956;3.106;2022-12-08T07:24:37;8.60;;;3.63;;
17917;SDS011;9084;50.956;3.106;2022-12-08T07:27:05;5.13;;;3.33;;
17917;SDS011;9084;50.956;3.106;2022-12-08T07:29:31;7.10;;;4.43;;
17917;SDS011;9084;50.956;3.106;2022-12-08T07:31:57;6.93;;;4.03;;
17917;SDS011;9084;50.956;3.106;2022-12-08T07:34:23;4.80;;;3.80;;
17917;SDS011;9084;50.956;3.106;2022-12-08T07:36:53;5.07;;;4.27;;
17917;SDS011;9084;50.956;3.106;2022-12-08T07:39:21;4.63;;;3.43;;
17917;SDS011;9084;50.956;3.106;2022-12-08T07:41:49;4.67;;;2.80;;
17917;SDS011;9084;50.956;3.106;2022-12-08T07:44:15;3.97;;;3.23;;
17917;SDS011;9084;50.956;3.106;2022-12-08T07:46:41;4.93;;;3.27;;
17917;SDS011;9084;50.956;3.106;2022-12-08T07:49:09;3.90;;;3.30;;
17917;SDS011;9084;50.956;3.106;2022-12-08T07:51:36;6.63;;;3.43;;
17917;SDS011;9084;50.956;3.106;2022-12-08T07:54:02;4.40;;;3.50;;
17917;SDS011;9084;50.956;3.106;2022-12-08T07:56:28;4.77;;;3.27;;
17917;SDS011;9084;50.956;3.106;2022-12-08T07:58:54;6.77;;;3.87;;
17917;SDS011;9084;50.956;3.106;2022-12-08T08:01:25;6.77;;;3.50;;
17917;SDS011;9084;50.956;3.106;2022-12-08T08:03:54;5.80;;;3.67;;
17917;SDS011;9084;50.956;3.106;2022-12-08T08:06:22;4.40;;;3.37;;
17917;SDS011;9084;50.956;3.106;2022-12-08T08:08:48;4.93;;;3.90;;
17917;SDS011;9084;50.956;3.106;2022-12-08T08:11:16;6.40;;;4.40;;
17917;SDS011;9084;50.956;3.106;2022-12-08T08:13:46;6.03;;;5.23;;
17917;SDS011;9084;50.956;3.106;2022-12-08T08:16:15;6.33;;;5.50;;
17917;SDS011;9084;50.956;3.106;2022-12-08T08:18:41;8.93;;;6.27;;
17917;SDS011;9084;50.956;3.106;2022-12-08T08:21:07;13.40;;;12.10;;
17917;SDS011;9084;50.956;3.106;2022-12-08T08:23:34;7.90;;;7.10;;
17917;SDS011;9084;50.956;3.106;2022-12-08T08:26:01;7.27;;;6.57;;
17917;SDS011;9084;50.956;3.106;2022-12-08T08:28:28;5.63;;;4.10;;
17917;SDS011;9084;50.956;3.106;2022-12-08T08:30:55;3.93;;;3.00;;
17917;SDS011;9084;50.956;3.106;2022-12-08T08:33:24;7.60;;;3.97;;
17917;SDS011;9084;50.956;3.106;2022-12-08T08:35:51;4.03;;;3.63;;
17917;SDS011;9084;50.956;3.106;2022-12-08T08:38:17;6.13;;;3.67;;
17917;SDS011;9084;50.956;3.106;2022-12-08T08:40:44;5.13;;;4.30;;
17917;SDS011;9084;50.956;3.106;2022-12-08T08:43:12;7.03;;;5.20;;
17917;SDS011;9084;50.956;3.106;2022-12-08T08:46:02;5.90;;;4.80;;
17917;SDS011;9084;50.956;3.106;2022-12-08T08:48:31;7.57;;;5.47;;
17917;SDS011;9084;50.956;3.106;2022-12-08T08:51:05;8.77;;;5.40;;
17917;SDS011;9084;50.956;3.106;2022-12-08T08:53:33;8.17;;;5.40;;
17917;SDS011;9084;50.956;3.106;2022-12-08T08:56:00;5.53;;;4.83;;
17917;SDS011;9084;50.956;3.106;2022-12-08T08:58:28;6.00;;;4.80;;
17917;SDS011;9084;50.956;3.106;2022-12-08T09:00:57;6.60;;;4.80;;
17917;SDS011;9084;50.956;3.106;2022-12-08T09:03:25;8.33;;;5.17;;
17917;SDS011;9084;50.956;3.106;2022-12-08T09:05:51;6.67;;;5.40;;
17917;SDS011;9084;50.956;3.106;2022-12-08T09:08:21;7.47;;;5.70;;
17917;SDS011;9084;50.956;3.106;2022-12-08T09:10:50;6.07;;;5.40;;
17917;SDS011;9084;50.956;3.106;2022-12-08T09:13:16;7.20;;;5.07;;
17917;SDS011;9084;50.956;3.106;2022-12-08T09:15:45;6.33;;;4.60;;
17917;SDS011;9084;50.956;3.106;2022-12-08T09:18:11;6.17;;;4.47;;
17917;SDS011;9084;50.956;3.106;2022-12-08T09:20:37;5.67;;;4.30;;
17917;SDS011;9084;50.956;3.106;2022-12-08T09:23:06;6.43;;;4.50;;
17917;SDS011;9084;50.956;3.106;2022-12-08T09:25:36;5.83;;;4.50;;
17917;SDS011;9084;50.956;3.106;2022-12-08T09:28:07;6.37;;;5.50;;
17917;SDS011;9084;50.956;3.106;2022-12-08T09:30:33;5.57;;;4.30;;
17917;SDS011;9084;50.956;3.106;2022-12-08T09:32:59;4.83;;;4.20;;
17917;SDS011;9084;50.956;3.106;2022-12-08T09:35:30;6.57;;;3.87;;
17917;SDS011;9084;50.956;3.106;2022-12-08T09:37:55;5.80;;;4.63;;
17917;SDS011;9084;50.956;3.106;2022-12-08T09:40:25;5.70;;;4.10;;
17917;SDS011;9084;50.956;3.106;2022-12-08T09:45:25;6.77;;;4.43;;
17917;SDS011;9084;50.956;3.106;2022-12-08T09:47:59;4.27;;;3.87;;
17917;SDS011;9084;50.956;3.106;2022-12-08T09:53:23;5.53;;;3.63;;
17917;SDS011;9084;50.956;3.106;2022-12-08T09:56:07;6.57;;;4.37;;
17917;SDS011;9084;50.956;3.106;2022-12-08T10:01:17;4.73;;;4.33;;
17917;SDS011;9084;50.956;3.106;2022-12-08T10:03:44;5.40;;;3.60;;
17917;SDS011;9084;50.956;3.106;2022-12-08T10:08:50;5.23;;;4.53;;
17917;SDS011;9084;50.956;3.106;2022-12-08T10:11:42;6.57;;;3.93;;
17917;SDS011;9084;50.956;3.106;2022-12-08T10:16:51;9.83;;;5.63;;
17917;SDS011;9084;50.956;3.106;2022-12-08T10:19:25;6.13;;;3.27;;
17917;SDS011;9084;50.956;3.106;2022-12-08T10:21:55;6.57;;;3.40;;
17917;SDS011;9084;50.956;3.106;2022-12-08T10:24:25;3.67;;;3.00;;
17917;SDS011;9084;50.956;3.106;2022-12-08T10:27:11;4.63;;;2.97;;
17917;SDS011;9084;50.956;3.106;2022-12-08T10:29:38;4.23;;;3.30;;
17917;SDS011;9084;50.956;3.106;2022-12-08T10:32:15;6.47;;;3.77;;
17917;SDS011;9084;50.956;3.106;2022-12-08T10:35:00;4.43;;;3.07;;
17917;SDS011;9084;50.956;3.106;2022-12-08T10:37:31;5.80;;;3.10;;
17917;SDS011;9084;50.956;3.106;2022-12-08T10:39:58;6.83;;;2.63;;
17917;SDS011;9084;50.956;3.106;2022-12-08T10:42:45;5.70;;;3.63;;
17917;SDS011;9084;50.956;3.106;2022-12-08T10:48:04;6.43;;;3.17;;
17917;SDS011;9084;50.956;3.106;2022-12-08T10:50:41;5.63;;;3.60;;
17917;SDS011;9084;50.956;3.106;2022-12-08T10:55:50;4.97;;;4.07;;
17917;SDS011;9084;50.956;3.106;2022-12-08T10:58:23;6.43;;;4.13;;
17917;SDS011;9084;50.956;3.106;2022-12-08T11:03:42;5.50;;;4.33;;
17917;SDS011;9084;50.956;3.106;2022-12-08T11:06:54;7.05;;;5.55;;
17917;SDS011;9084;50.956;3.106;2022-12-08T11:09:06;5.40;;;3.97;;
17917;SDS011;9084;50.956;3.106;2022-12-08T11:11:45;9.47;;;6.50;;
17917;SDS011;9084;50.956;3.106;2022-12-08T11:14:24;8.07;;;5.77;;
17917;SDS011;9084;50.956;3.106;2022-12-08T11:19:37;5.10;;;3.40;;
17917;SDS011;9084;50.956;3.106;2022-12-08T11:27:43;5.20;;;3.90;;
17917;SDS011;9084;50.956;3.106;2022-12-08T11:30:16;17.80;;;3.70;;
17917;SDS011;9084;50.956;3.106;2022-12-08T11:32:47;3.63;;;3.30;;
17917;SDS011;9084;50.956;3.106;2022-12-08T11:35:40;4.37;;;3.50;;
17917;SDS011;9084;50.956;3.106;2022-12-08T11:38:15;4.73;;;3.27;;
17917;SDS011;9084;50.956;3.106;2022-12-08T11:41:09;5.43;;;3.73;;
17917;SDS011;9084;50.956;3.106;2022-12-08T11:46:33;3.80;;;3.30;;
17917;SDS011;9084;50.956;3.106;2022-12-08T11:49:09;7.43;;;3.67;;
17917;SDS011;9084;50.956;3.106;2022-12-08T11:54:33;4.67;;;3.13;;
17917;SDS011;9084;50.956;3.106;2022-12-08T11:57:06;4.87;;;4.27;;
17917;SDS011;9084;50.956;3.106;2022-12-08T11:59:39;5.93;;;3.43;;
17917;SDS011;9084;50.956;3.106;2022-12-08T12:02:14;3.77;;;2.87;;
17917;SDS011;9084;50.956;3.106;2022-12-08T12:04:59;5.50;;;3.30;;
17917;SDS011;9084;50.956;3.106;2022-12-08T12:10:17;5.17;;;3.50;;
17917;SDS011;9084;50.956;3.106;2022-12-08T12:18:54;5.43;;;3.67;;
17917;SDS011;9084;50.956;3.106;2022-12-08T12:21:29;6.63;;;4.20;;
17917;SDS011;9084;50.956;3.106;2022-12-08T12:23:56;4.13;;;3.37;;
17917;SDS011;9084;50.956;3.106;2022-12-08T12:26:32;4.90;;;3.30;;
17917;SDS011;9084;50.956;3.106;2022-12-08T12:29:03;7.63;;;3.47;;
17917;SDS011;9084;50.956;3.106;2022-12-08T12:31:46;4.10;;;3.13;;
17917;SDS011;9084;50.956;3.106;2022-12-08T12:40:04;3.83;;;3.43;;
17917;SDS011;9084;50.956;3.106;2022-12-08T12:42:44;4.77;;;2.50;;
17917;SDS011;9084;50.956;3.106;2022-12-08T12:53:04;6.10;;;2.87;;
17917;SDS011;9084;50.956;3.106;2022-12-08T12:55:51;7.10;;;3.67;;
17917;SDS011;9084;50.956;3.106;2022-12-08T13:03:36;4.53;;;3.83;;
17917;SDS011;9084;50.956;3.106;2022-12-08T13:06:04;5.73;;;3.93;;
17917;SDS011;9084;50.956;3.106;2022-12-08T13:08:31;9.23;;;3.47;;
17917;SDS011;9084;50.956;3.106;2022-12-08T13:11:04;4.37;;;3.33;;
17917;SDS011;9084;50.956;3.106;2022-12-08T13:13:35;3.90;;;3.17;;
17917;SDS011;9084;50.956;3.106;2022-12-08T13:18:55;5.30;;;4.40;;
17917;SDS011;9084;50.956;3.106;2022-12-08T13:21:23;5.37;;;4.33;;
17917;SDS011;9084;50.956;3.106;2022-12-08T13:26:45;3.97;;;3.63;;
17917;SDS011;9084;50.956;3.106;2022-12-08T13:31:53;3.83;;;3.53;;
17917;SDS011;9084;50.956;3.106;2022-12-08T13:39:57;7.67;;;4.67;;
17917;SDS011;9084;50.956;3.106;2022-12-08T13:42:56;4.33;;;3.87;;
17917;SDS011;9084;50.956;3.106;2022-12-08T13:45:45;5.23;;;4.20;;
17917;SDS011;9084;50.956;3.106;2022-12-08T13:48:14;7.17;;;4.43;;
17917;SDS011;9084;50.956;3.106;2022-12-08T13:51:02;4.60;;;3.90;;
17917;SDS011;9084;50.956;3.106;2022-12-08T13:53:39;3.93;;;3.50;;
17917;SDS011;9084;50.956;3.106;2022-12-08T13:56:08;3.00;;;2.70;;
17917;SDS011;9084;50.956;3.106;2022-12-08T13:58:38;3.27;;;2.97;;
17917;SDS011;9084;50.956;3.106;2022-12-08T14:03:57;2.97;;;2.63;;
17917;SDS011;9084;50.956;3.106;2022-12-08T14:06:30;3.03;;;2.37;;
17917;SDS011;9084;50.956;3.106;2022-12-08T14:09:05;2.93;;;2.70;;
17917;SDS011;9084;50.956;3.106;2022-12-08T14:11:35;3.83;;;2.27;;
17917;SDS011;9084;50.956;3.106;2022-12-08T14:14:15;4.20;;;2.20;;
17917;SDS011;9084;50.956;3.106;2022-12-08T14:16:51;2.30;;;2.10;;
17917;SDS011;9084;50.956;3.106;2022-12-08T14:19:29;2.50;;;2.30;;
17917;SDS011;9084;50.956;3.106;2022-12-08T14:22:00;2.57;;;2.37;;
17917;SDS011;9084;50.956;3.106;2022-12-08T14:24:27;4.83;;;2.43;;
17917;SDS011;9084;50.956;3.106;2022-12-08T14:27:03;2.73;;;2.53;;
17917;SDS011;9084;50.956;3.106;2022-12-08T14:29:36;4.80;;;2.63;;
17917;SDS011;9084;50.956;3.106;2022-12-08T14:32:14;4.00;;;2.70;;
17917;SDS011;9084;50.956;3.106;2022-12-08T14:34:43;3.67;;;2.97;;
17917;SDS011;9084;50.956;3.106;2022-12-08T14:37:11;4.00;;;3.20;;
17917;SDS011;9084;50.956;3.106;2022-12-08T14:39:38;4.43;;;3.40;;
17917;SDS011;9084;50.956;3.106;2022-12-08T14:42:05;4.53;;;3.17;;
17917;SDS011;9084;50.956;3.106;2022-12-08T14:44:35;5.60;;;3.77;;
17917;SDS011;9084;50.956;3.106;2022-12-08T14:47:07;4.70;;;3.23;;
17917;SDS011;9084;50.956;3.106;2022-12-08T14:49:42;4.87;;;4.00;;
17917;SDS011;9084;50.956;3.106;2022-12-08T14:52:09;3.60;;;3.17;;
17917;SDS011;9084;50.956;3.106;2022-12-08T14:54:35;4.27;;;3.27;;
17917;SDS011;9084;50.956;3.106;2022-12-08T14:57:03;4.53;;;2.90;;
17917;SDS011;9084;50.956;3.106;2022-12-08T14:59:35;3.03;;;2.50;;
17917;SDS011;9084;50.956;3.106;2022-12-08T15:04:43;3.37;;;2.03;;
17917;SDS011;9084;50.956;3.106;2022-12-08T15:07:15;4.83;;;2.70;;
17917;SDS011;9084;50.956;3.106;2022-12-08T15:09:46;2.53;;;1.90;;
17917;SDS011;9084;50.956;3.106;2022-12-08T15:14:42;3.07;;;2.70;;
17917;SDS011;9084;50.956;3.106;2022-12-08T15:17:39;2.07;;;1.90;;
17917;SDS011;9084;50.956;3.106;2022-12-08T15:20:38;4.37;;;2.53;;
17917;SDS011;9084;50.956;3.106;2022-12-08T15:23:16;3.67;;;2.90;;
17917;SDS011;9084;50.956;3.106;2022-12-08T15:25:49;4.63;;;3.43;;
17917;SDS011;9084;50.956;3.106;2022-12-08T15:28:17;2.83;;;2.40;;
17917;SDS011;9084;50.956;3.106;2022-12-08T15:30:47;2.70;;;1.97;;
17917;SDS011;9084;50.956;3.106;2022-12-08T15:33:14;4.37;;;3.47;;
17917;SDS011;9084;50.956;3.106;2022-12-08T15:35:40;2.57;;;1.93;;
17917;SDS011;9084;50.956;3.106;2022-12-08T15:38:08;2.23;;;1.60;;
17917;SDS011;9084;50.956;3.106;2022-12-08T15:40:56;3.07;;;2.10;;
17917;SDS011;9084;50.956;3.106;2022-12-08T15:43:25;1.63;;;1.33;;
17917;SDS011;9084;50.956;3.106;2022-12-08T15:45:51;1.67;;;1.40;;
17917;SDS011;9084;50.956;3.106;2022-12-08T15:48:22;4.50;;;2.63;;
17917;SDS011;9084;50.956;3.106;2022-12-08T15:50:52;2.50;;;2.20;;
17917;SDS011;9084;50.956;3.106;2022-12-08T15:53:19;2.57;;;2.03;;
17917;SDS011;9084;50.956;3.106;2022-12-08T15:55:45;2.37;;;1.90;;
17917;SDS011;9084;50.956;3.106;2022-12-08T15:58:18;1.37;;;1.27;;
17917;SDS011;9084;50.956;3.106;2022-12-08T16:00:45;1.33;;;1.00;;
17917;SDS011;9084;50.956;3.106;2022-12-08T16:03:21;1.23;;;0.90;;
17917;SDS011;9084;50.956;3.106;2022-12-08T16:05:48;1.50;;;0.70;;
17917;SDS011;9084;50.956;3.106;2022-12-08T16:08:14;2.50;;;0.80;;
17917;SDS011;9084;50.956;3.106;2022-12-08T16:10:41;0.80;;;0.50;;
17917;SDS011;9084;50.956;3.106;2022-12-08T16:13:20;1.53;;;0.70;;
17917;SDS011;9084;50.956;3.106;2022-12-08T16:16:04;1.67;;;0.80;;
17917;SDS011;9084;50.956;3.106;2022-12-08T16:18:35;1.57;;;0.70;;
17917;SDS011;9084;50.956;3.106;2022-12-08T16:21:04;3.00;;;1.13;;
17917;SDS011;9084;50.956;3.106;2022-12-08T16:23:30;1.23;;;1.10;;
17917;SDS011;9084;50.956;3.106;2022-12-08T16:25:56;3.00;;;1.07;;
17917;SDS011;9084;50.956;3.106;2022-12-08T16:28:24;1.17;;;1.07;;
17917;SDS011;9084;50.956;3.106;2022-12-08T16:30:54;1.83;;;1.67;;
17917;SDS011;9084;50.956;3.106;2022-12-08T16:33:20;4.77;;;2.20;;
17917;SDS011;9084;50.956;3.106;2022-12-08T16:35:46;4.20;;;2.97;;
17917;SDS011;9084;50.956;3.106;2022-12-08T16:38:15;3.97;;;2.67;;
17917;SDS011;9084;50.956;3.106;2022-12-08T16:40:44;3.27;;;2.90;;
17917;SDS011;9084;50.956;3.106;2022-12-08T16:43:32;3.57;;;2.70;;
17917;SDS011;9084;50.956;3.106;2022-12-08T16:45:59;4.33;;;2.90;;
17917;SDS011;9084;50.956;3.106;2022-12-08T16:48:25;3.27;;;2.97;;
17917;SDS011;9084;50.956;3.106;2022-12-08T16:50:51;4.03;;;3.30;;
17917;SDS011;9084;50.956;3.106;2022-12-08T16:53:18;3.47;;;2.70;;
17917;SDS011;9084;50.956;3.106;2022-12-08T16:55:47;4.00;;;3.00;;
17917;SDS011;9084;50.956;3.106;2022-12-08T16:58:16;4.53;;;3.10;;
17917;SDS011;9084;50.956;3.106;2022-12-08T17:00:44;3.10;;;2.80;;
17917;SDS011;9084;50.956;3.106;2022-12-08T17:03:13;14.13;;;7.67;;